createdAt,value
2019-03-22T09:47:24.101Z,19.45
2019-03-22T09:53:24.096Z,19.49
2019-03-22T09:59:24.170Z,19.50
2019-03-22T10:05:24.205Z,19.51
2019-03-22T10:11:24.131Z,19.43
2019-03-22T10:17:24.161Z,19.27
2019-03-22T10:23:24.083Z,19.14
2019-03-22T10:29:24.177Z,19.14
2019-03-22T10:35:26.286Z,19.19
2019-03-22T10:41:24.109Z,19.21
2019-03-22T10:47:24.144Z,19.24
2019-03-22T10:53:24.120Z,19.28
2019-03-22T10:59:24.240Z,19.33
2019-03-22T11:05:24.128Z,19.35
2019-03-22T11:11:24.224Z,19.33
2019-03-22T11:17:24.140Z,19.29
2019-03-22T11:23:24.122Z,19.25
2019-03-22T11:29:24.174Z,19.24
2019-03-22T11:35:24.173Z,19.21
2019-03-22T11:41:24.169Z,19.21
2019-03-22T11:47:24.164Z,19.23
2019-03-22T11:53:24.168Z,19.23
2019-03-22T11:59:24.177Z,19.23
2019-03-22T12:05:24.188Z,19.22
2019-03-22T12:11:24.183Z,19.23
2019-03-22T12:17:24.178Z,19.22
2019-03-22T12:23:24.218Z,19.21
2019-03-22T12:29:24.219Z,19.20
2019-03-22T12:35:24.184Z,19.19
2019-03-22T12:41:24.188Z,19.19
2019-03-22T12:47:24.240Z,19.19
2019-03-22T12:53:24.345Z,19.19
2019-03-22T12:59:24.214Z,19.21
2019-03-22T13:05:24.214Z,19.21
2019-03-22T13:11:24.205Z,19.21
2019-03-22T13:17:24.208Z,19.21
2019-03-22T13:23:24.263Z,19.23
2019-03-22T13:29:24.227Z,19.25
2019-03-22T13:35:24.237Z,19.28
2019-03-22T13:41:24.239Z,19.31
2019-03-22T13:47:24.270Z,19.34
2019-03-22T13:53:24.250Z,19.37
2019-03-22T13:59:24.247Z,19.39
2019-03-22T14:05:24.259Z,19.42
2019-03-22T14:11:24.357Z,19.44
2019-03-22T14:17:24.284Z,19.45
2019-03-22T14:23:24.277Z,19.46
2019-03-22T14:29:24.263Z,19.49
2019-03-22T14:35:24.295Z,19.51
2019-03-22T14:41:24.318Z,19.51
2019-03-22T14:47:24.329Z,19.52
2019-03-22T14:53:24.475Z,19.52
2019-03-22T14:59:24.337Z,19.55
2019-03-22T15:05:24.323Z,19.59
2019-03-22T15:11:24.302Z,19.62
2019-03-22T15:17:24.312Z,19.66
2019-03-22T15:23:24.426Z,19.72
2019-03-22T15:29:24.328Z,19.71
2019-03-22T15:41:24.387Z,19.66
2019-03-22T15:47:24.328Z,19.65
2019-03-22T15:53:24.374Z,19.64
2019-03-22T15:59:24.359Z,19.63
2019-03-22T16:05:24.561Z,19.56
2019-03-22T16:11:24.422Z,19.52
2019-03-22T16:17:24.368Z,19.53
2019-03-22T16:23:24.367Z,19.53
2019-03-22T16:29:24.397Z,19.52
2019-03-22T16:35:24.463Z,19.55
2019-03-22T16:41:24.375Z,19.59
2019-03-22T16:47:24.392Z,19.61
2019-03-22T16:53:24.473Z,19.60
2019-03-22T16:59:24.389Z,19.58
2019-03-22T17:05:24.460Z,19.57
2019-03-22T17:11:24.401Z,19.59
2019-03-22T17:17:24.417Z,19.60
2019-03-22T17:23:24.484Z,19.58
2019-03-22T17:29:24.423Z,19.59
2019-03-22T17:35:24.461Z,19.55
2019-03-22T17:41:24.411Z,19.52
2019-03-22T17:47:24.433Z,19.48
2019-03-22T17:53:24.527Z,19.45
2019-03-22T17:59:24.460Z,19.43
2019-03-22T18:05:24.652Z,19.41
2019-03-22T18:11:24.529Z,19.39
2019-03-22T18:17:24.456Z,19.37
2019-03-22T18:23:24.524Z,19.33
2019-03-22T18:29:24.447Z,19.28
2019-03-22T18:35:24.518Z,19.24
2019-03-22T18:41:24.472Z,19.17
2019-03-22T18:47:24.490Z,19.16
2019-03-22T18:53:24.485Z,19.17
2019-03-22T18:59:24.491Z,19.26
2019-03-22T19:05:24.512Z,19.29
2019-03-22T19:11:24.493Z,19.29
2019-03-22T19:17:24.486Z,19.31
2019-03-22T19:23:24.514Z,19.31
2019-03-22T19:29:24.554Z,19.34
2019-03-22T19:35:24.493Z,19.37
2019-03-22T19:41:24.545Z,19.42
2019-03-22T19:47:24.596Z,19.50
2019-03-22T19:53:24.638Z,19.54
2019-03-22T19:59:24.537Z,19.60
2019-03-22T20:05:24.622Z,19.67
2019-03-22T20:11:24.691Z,19.74
2019-03-22T20:17:24.542Z,19.83
2019-03-22T20:23:24.639Z,19.89
2019-03-22T20:29:24.573Z,20.01
2019-03-22T20:35:24.560Z,20.13
2019-03-22T20:41:24.563Z,20.27
2019-03-22T20:47:24.582Z,20.40
2019-03-22T20:53:24.647Z,20.53
2019-03-22T20:59:24.709Z,20.64
2019-03-22T21:05:27.165Z,20.74
2019-03-22T21:11:24.602Z,20.84
2019-03-22T21:17:24.618Z,20.95
2019-03-22T21:23:24.637Z,21.06
2019-03-22T21:29:24.593Z,21.14
2019-03-22T21:35:24.631Z,21.25
2019-03-22T21:41:24.604Z,21.34
2019-03-22T21:47:24.616Z,21.42
2019-03-22T21:53:24.604Z,21.50
2019-03-22T21:59:24.690Z,21.58
2019-03-22T22:05:24.629Z,21.63
2019-03-22T22:11:24.639Z,21.68
2019-03-22T22:17:24.736Z,21.72
2019-03-22T22:23:24.723Z,21.76
2019-03-22T22:29:24.674Z,21.80
2019-03-22T22:35:24.641Z,21.82
2019-03-22T22:41:24.647Z,21.83
2019-03-22T22:47:24.662Z,21.83
2019-03-22T22:53:24.778Z,21.84
2019-03-22T22:59:24.670Z,21.81
2019-03-22T23:05:24.696Z,21.80
2019-03-22T23:11:24.912Z,21.76
2019-03-22T23:17:24.762Z,21.76
2019-03-22T23:23:24.705Z,21.73
2019-03-22T23:29:24.727Z,21.71
2019-03-22T23:35:24.686Z,21.69
2019-03-22T23:41:24.819Z,21.66
2019-03-22T23:47:24.746Z,21.64
2019-03-22T23:53:24.699Z,21.60
2019-03-22T23:59:24.711Z,21.57
